LIPULIEO

Guest
Details From LIPU - Padova
To LIEO - Olbia Costa Smeralda
Flight Number -
Tags Generated
Created
Modified
Stats Distance 289 nm / 535 km
Max Altitude 0 ft / 0 m
Waypoints 3
Social Downloads 1
Likes 0
Share VATSIM

Download

Looking for another format? Having issues loading an existing format? Contact us
Advertisement - Login to hide

Notes

Generated

Route

LIPU TALIN LIEO

ID Type Via Altitude Latitude Longitude Leg Dist Tot Dist Heading (true) Name
O LIPU APT - 0 ft / 0 m 45.39247˚ 11.84366˚ - 0 nm - -
TALIN FIX - 0 ft / 0 m 41.03833˚ 9.57167˚ 279 nm 279 nm 202° / 200° -
O LIEO APT - 0 ft / 0 m 40.89241˚ 9.50569˚ 9 nm 288 nm 199° / 199° -

Altitude Profile

Advertisement - Login to hide

Weather


0- 5 10 15 20 25 30 35+ Temperature / ° C

Clouds and Precipitation
Forecast for 2017-12-17 12:00 UTC. Updated an hour ago

Ground ~20,000 ft ~40,000 ft Winds

LIPU

Details ICAO LIPU (QPA)
Name PADOVA
Region Italy
Timezone Europe/Rome (UTC+1.0)
Stats Elevation 44 ft / 13 m (AMSL)
Location 45.396352° 11.848238°
Runways 1
Magnetic Variation 3.069° E

METAR

LIPU 170650Z VRB02KT CAVOK M02/M02 Q1017

Decode

TAF

Not found

Departure Runways

ID Width Length Bearing (true) Bearing (mag) Surface Threshold Offset Overrun Length
04 98 ft / 30 m 3,676 ft / 1,120 m 39.65° 36.58° Asphalt 203 ft / 62 m 0 ft / 0 m
22 98 ft / 30 m 3,676 ft / 1,120 m 219.66° 216.59° Asphalt 735 ft / 224 m 0 ft / 0 m

LIEO

Details ICAO LIEO (OLB)
Name OLBIA COSTA SMERALDA
Region Italy
Timezone Europe/Rome (UTC+1.0)
Stats Elevation 37 ft / 11 m (AMSL)
Location 40.898661° 9.517629°
Runways 1
Magnetic Variation 2.443° E

METAR

LIEO 170750Z 24012KT 9999 SCT030 08/03 Q1017

Decode

TAF

TAF LIEO 170500Z 1706/1806 26013KT 9999 SCT030 BECMG 1709/1711 35010KT TEMPO 1716/1720 4000 SHRA BECMG 1718/1720 VRB05KT

Decode

Destination Runways

ID Width Length Bearing (true) Bearing (mag) Surface Threshold Offset Overrun Length
06 148 ft / 45 m 8,013 ft / 2,442 m 55.30° 52.86° Asphalt 805 ft / 245 m 180 ft / 55 m
24 148 ft / 45 m 8,013 ft / 2,442 m 235.31° 232.87° Asphalt 495 ft / 151 m 180 ft / 55 m

Approach Navaids

Runway Type Ident Frequency Range Bearing (true) Bearing (mag) Slope Elevation
06 Localiser ISM 109.90 MHz 18 nm / 33 km 55.31° 52.87° - 36 ft / 11 m (AMSL)
06 Glidescope ISM 109.90 MHz 10 nm / 19 km 55.30° 52.86° 3.50° 36 ft / 11 m (AMSL)
06 DME ISM 109.90 MHz 18 nm / 33 km - - - 36 ft / 11 m (AMSL)
24 Localiser IOL 111.30 MHz 20 nm / 37 km 235.31° 232.87° - 36 ft / 11 m (AMSL)
24 Glidescope IOL 111.30 MHz 10 nm / 19 km 235.31° 232.87° 3.00° 36 ft / 11 m (AMSL)
24 DME IOL 111.30 MHz 25 nm / 46 km - - - 36 ft / 11 m (AMSL)